Birkbeck, Illinois
Current Conditions -  °F | °C
As of 7:55 AM on Friday 24 Oct 2014 (Local Time) from KAAA Reporting Station
Overcast Overcast  
Wind Chill: 49°   Ceiling: 800
Heat Index: 49°   Visibility: 7mi
Dew Point: 47°   Wind: 0mph
Humidity: 95%   Direction: NA
Pressure: 30.08"   Gusts: NA
Location:  40.143°N, 88.9637°W
Report Text: KAAA 241255Z AUTO 00000KT 7SM OVC008 09/08 A3008 RMK AO2 T00920084
Loading
Personal Weather Stations






























Interactive Weather Map
Tropical Storm Tracking
New forecast layout! Learn more

10-Day Weather Forecast

Advertisements
Track Severe Weather on mobile